sensor_id;sensor_type;location;lat;lon;timestamp;pressure;altitude;pressure_sealevel;temperature;humidity
36630;BME280;36256;42.154;23.002;2023-05-07T00:00:21;97358.56;;;14.17;94.21
36630;BME280;36256;42.154;23.002;2023-05-07T00:02:47;97363.09;;;14.14;92.62
36630;BME280;36256;42.154;23.002;2023-05-07T00:05:14;97365.31;;;14.10;92.98
36630;BME280;36256;42.154;23.002;2023-05-07T00:07:41;97361.38;;;14.17;91.95
36630;BME280;36256;42.154;23.002;2023-05-07T00:10:10;97356.50;;;14.17;90.61
36630;BME280;36256;42.154;23.002;2023-05-07T00:12:37;97362.44;;;14.19;88.36
36630;BME280;36256;42.154;23.002;2023-05-07T00:15:04;97369.00;;;14.26;86.54
36630;BME280;36256;42.154;23.002;2023-05-07T00:17:32;97365.56;;;14.31;85.58
36630;BME280;36256;42.154;23.002;2023-05-07T00:19:59;97363.16;;;14.38;85.49
36630;BME280;36256;42.154;23.002;2023-05-07T00:22:26;97378.97;;;14.45;85.31
36630;BME280;36256;42.154;23.002;2023-05-07T00:24:53;97366.97;;;14.26;85.80
36630;BME280;36256;42.154;23.002;2023-05-07T00:27:19;97374.53;;;14.29;87.40
36630;BME280;36256;42.154;23.002;2023-05-07T00:29:46;97377.66;;;14.22;88.37
36630;BME280;36256;42.154;23.002;2023-05-07T00:32:13;97372.19;;;14.18;90.06
36630;BME280;36256;42.154;23.002;2023-05-07T00:34:40;97373.91;;;14.16;91.81
36630;BME280;36256;42.154;23.002;2023-05-07T00:37:06;97375.03;;;14.09;92.51
36630;BME280;36256;42.154;23.002;2023-05-07T00:39:36;97366.59;;;14.00;93.13
36630;BME280;36256;42.154;23.002;2023-05-07T00:42:02;97357.19;;;13.94;93.53
36630;BME280;36256;42.154;23.002;2023-05-07T00:44:29;97381.13;;;14.17;94.27
36630;BME280;36256;42.154;23.002;2023-05-07T00:47:01;97381.88;;;14.17;94.06
36630;BME280;36256;42.154;23.002;2023-05-07T00:49:39;97381.13;;;14.17;93.07
36630;BME280;36256;42.154;23.002;2023-05-07T00:52:09;97382.84;;;14.14;90.81
36630;BME280;36256;42.154;23.002;2023-05-07T00:54:38;97391.94;;;14.18;91.47
36630;BME280;36256;42.154;23.002;2023-05-07T00:57:06;97391.78;;;14.13;92.50
36630;BME280;36256;42.154;23.002;2023-05-07T00:59:33;97395.09;;;14.11;91.45
36630;BME280;36256;42.154;23.002;2023-05-07T01:02:00;97394.44;;;14.16;92.57
36630;BME280;36256;42.154;23.002;2023-05-07T01:04:27;97390.41;;;14.08;93.12
36630;BME280;36256;42.154;23.002;2023-05-07T01:06:54;97388.81;;;14.07;93.12
36630;BME280;36256;42.154;23.002;2023-05-07T01:09:26;97378.19;;;14.02;92.75
36630;BME280;36256;42.154;23.002;2023-05-07T01:11:54;97390.72;;;14.10;91.41
36630;BME280;36256;42.154;23.002;2023-05-07T01:14:24;97393.53;;;14.10;92.08
36630;BME280;36256;42.154;23.002;2023-05-07T01:16:53;97397.41;;;14.13;92.45
36630;BME280;36256;42.154;23.002;2023-05-07T01:19:20;97386.31;;;14.09;94.37
36630;BME280;36256;42.154;23.002;2023-05-07T01:21:48;97388.81;;;14.07;93.99
36630;BME280;36256;42.154;23.002;2023-05-07T01:24:15;97394.78;;;14.00;94.82
36630;BME280;36256;42.154;23.002;2023-05-07T01:26:43;97392.63;;;13.95;97.65
36630;BME280;36256;42.154;23.002;2023-05-07T01:29:11;97390.59;;;13.96;97.89
36630;BME280;36256;42.154;23.002;2023-05-07T01:31:38;97381.97;;;13.99;96.49
36630;BME280;36256;42.154;23.002;2023-05-07T01:34:08;97386.03;;;13.98;96.71
36630;BME280;36256;42.154;23.002;2023-05-07T01:36:37;97374.13;;;13.94;96.19
36630;BME280;36256;42.154;23.002;2023-05-07T01:39:05;97376.66;;;13.92;95.93
36630;BME280;36256;42.154;23.002;2023-05-07T01:41:32;97379.34;;;13.87;96.37
36630;BME280;36256;42.154;23.002;2023-05-07T01:44:00;97377.94;;;13.82;97.47
36630;BME280;36256;42.154;23.002;2023-05-07T01:46:28;97377.81;;;13.68;98.08
36630;BME280;36256;42.154;23.002;2023-05-07T01:48:55;97366.22;;;13.57;99.06
36630;BME280;36256;42.154;23.002;2023-05-07T01:51:22;97374.06;;;13.62;98.38
36630;BME280;36256;42.154;23.002;2023-05-07T01:53:49;97360.28;;;13.46;98.62
36630;BME280;36256;42.154;23.002;2023-05-07T01:56:19;97367.03;;;13.39;99.00
36630;BME280;36256;42.154;23.002;2023-05-07T01:58:46;97375.47;;;13.48;97.94
36630;BME280;36256;42.154;23.002;2023-05-07T02:01:13;97367.03;;;13.57;97.52
36630;BME280;36256;42.154;23.002;2023-05-07T02:03:40;97372.81;;;13.54;97.55
36630;BME280;36256;42.154;23.002;2023-05-07T02:06:08;97369.84;;;13.48;98.81
36630;BME280;36256;42.154;23.002;2023-05-07T02:08:35;97367.03;;;13.48;100.00
36630;BME280;36256;42.154;23.002;2023-05-07T02:11:01;97366.09;;;13.42;100.00
36630;BME280;36256;42.154;23.002;2023-05-07T02:13:31;97374.41;;;13.36;100.00
36630;BME280;36256;42.154;23.002;2023-05-07T02:15:58;97371.13;;;13.38;100.00
36630;BME280;36256;42.154;23.002;2023-05-07T02:18:25;97360.47;;;13.33;100.00
36630;BME280;36256;42.154;23.002;2023-05-07T02:20:51;97367.97;;;13.36;97.62
36630;BME280;36256;42.154;23.002;2023-05-07T02:23:18;97363.44;;;13.38;96.88
36630;BME280;36256;42.154;23.002;2023-05-07T02:25:45;97361.56;;;13.35;96.29
36630;BME280;36256;42.154;23.002;2023-05-07T02:28:12;97363.28;;;13.33;96.59
36630;BME280;36256;42.154;23.002;2023-05-07T02:30:39;97359.34;;;13.30;96.75
36630;BME280;36256;42.154;23.002;2023-05-07T02:33:06;97366.75;;;13.28;95.80
36630;BME280;36256;42.154;23.002;2023-05-07T02:35:34;97363.00;;;13.22;96.26
36630;BME280;36256;42.154;23.002;2023-05-07T02:38:01;97371.75;;;13.24;96.24
36630;BME280;36256;42.154;23.002;2023-05-07T02:40:28;97369.84;;;13.12;96.21
36630;BME280;36256;42.154;23.002;2023-05-07T02:42:55;97374.22;;;13.04;96.85
36630;BME280;36256;42.154;23.002;2023-05-07T02:45:22;97370.28;;;13.01;99.13
36630;BME280;36256;42.154;23.002;2023-05-07T02:47:48;97377.34;;;12.88;99.11
36630;BME280;36256;42.154;23.002;2023-05-07T02:50:15;97368.53;;;12.77;98.77
36630;BME280;36256;42.154;23.002;2023-05-07T02:52:42;97371.97;;;12.72;100.00
36630;BME280;36256;42.154;23.002;2023-05-07T02:55:08;97372.59;;;12.67;100.00
36630;BME280;36256;42.154;23.002;2023-05-07T02:57:35;97375.38;;;12.57;100.00
36630;BME280;36256;42.154;23.002;2023-05-07T03:00:16;97368.34;;;12.53;100.00
36630;BME280;36256;42.154;23.002;2023-05-07T03:02:46;97376.63;;;12.47;100.00
36630;BME280;36256;42.154;23.002;2023-05-07T03:05:13;97361.91;;;12.52;100.00
36630;BME280;36256;42.154;23.002;2023-05-07T03:07:40;97370.03;;;12.50;99.16
36630;BME280;36256;42.154;23.002;2023-05-07T03:10:11;97371.28;;;12.40;100.00
36630;BME280;36256;42.154;23.002;2023-05-07T03:12:38;97379.25;;;12.42;100.00
36630;BME280;36256;42.154;23.002;2023-05-07T03:15:06;97369.41;;;12.37;100.00
36630;BME280;36256;42.154;23.002;2023-05-07T03:17:32;97377.19;;;12.33;100.00
36630;BME280;36256;42.154;23.002;2023-05-07T03:19:59;97375.16;;;12.34;100.00
36630;BME280;36256;42.154;23.002;2023-05-07T03:22:26;97380.94;;;12.30;100.00
36630;BME280;36256;42.154;23.002;2023-05-07T03:24:52;97369.78;;;12.18;100.00
36630;BME280;36256;42.154;23.002;2023-05-07T03:27:19;97385.25;;;12.13;100.00
36630;BME280;36256;42.154;23.002;2023-05-07T03:29:46;97385.25;;;12.13;100.00
36630;BME280;36256;42.154;23.002;2023-05-07T03:32:13;97386.69;;;12.18;99.77
36630;BME280;36256;42.154;23.002;2023-05-07T03:34:39;97391.66;;;12.14;99.01
36630;BME280;36256;42.154;23.002;2023-05-07T03:37:06;97393.69;;;12.13;99.54
36630;BME280;36256;42.154;23.002;2023-05-07T03:39:33;97390.88;;;12.13;99.02
36630;BME280;36256;42.154;23.002;2023-05-07T03:41:59;97400.97;;;12.02;100.00
36630;BME280;36256;42.154;23.002;2023-05-07T03:44:27;97404.56;;;12.02;100.00
36630;BME280;36256;42.154;23.002;2023-05-07T03:46:54;97405.19;;;12.06;99.27
36630;BME280;36256;42.154;23.002;2023-05-07T03:49:21;97401.75;;;12.02;99.83
36630;BME280;36256;42.154;23.002;2023-05-07T03:51:48;97409.88;;;12.00;99.75
36630;BME280;36256;42.154;23.002;2023-05-07T03:54:14;97410.47;;;11.95;100.00
36630;BME280;36256;42.154;23.002;2023-05-07T03:56:41;97417.47;;;11.91;100.00
36630;BME280;36256;42.154;23.002;2023-05-07T03:59:08;97418.84;;;11.86;100.00
36630;BME280;36256;42.154;23.002;2023-05-07T04:01:34;97410.03;;;11.75;100.00
36630;BME280;36256;42.154;23.002;2023-05-07T04:04:01;97429.78;;;11.84;100.00
36630;BME280;36256;42.154;23.002;2023-05-07T04:06:28;97435.72;;;11.86;100.00
36630;BME280;36256;42.154;23.002;2023-05-07T04:08:54;97432.50;;;11.97;100.00
36630;BME280;36256;42.154;23.002;2023-05-07T04:11:21;97434.84;;;11.98;100.00
36630;BME280;36256;42.154;23.002;2023-05-07T04:13:48;97439.81;;;11.94;100.00
36630;BME280;36256;42.154;23.002;2023-05-07T04:16:15;97437.66;;;11.98;100.00
36630;BME280;36256;42.154;23.002;2023-05-07T04:18:42;97438.31;;;12.02;100.00
36630;BME280;36256;42.154;23.002;2023-05-07T04:21:18;97435.50;;;12.02;100.00
36630;BME280;36256;42.154;23.002;2023-05-07T04:23:46;97440.06;;;12.09;100.00
36630;BME280;36256;42.154;23.002;2023-05-07T04:26:13;97439.81;;;12.16;100.00
36630;BME280;36256;42.154;23.002;2023-05-07T04:28:40;97449.34;;;12.18;100.00
36630;BME280;36256;42.154;23.002;2023-05-07T04:31:07;97450.00;;;12.22;100.00
36630;BME280;36256;42.154;23.002;2023-05-07T04:33:34;97457.81;;;12.27;100.00
36630;BME280;36256;42.154;23.002;2023-05-07T04:36:01;97457.88;;;12.36;100.00
36630;BME280;36256;42.154;23.002;2023-05-07T04:38:31;97458.72;;;12.46;100.00
36630;BME280;36256;42.154;23.002;2023-05-07T04:41:03;97468.06;;;12.43;100.00
36630;BME280;36256;42.154;23.002;2023-05-07T04:43:30;97461.53;;;12.55;99.05
36630;BME280;36256;42.154;23.002;2023-05-07T04:45:57;97459.56;;;12.65;97.92
36630;BME280;36256;42.154;23.002;2023-05-07T04:48:24;97457.03;;;12.57;99.22
36630;BME280;36256;42.154;23.002;2023-05-07T04:50:51;97458.91;;;12.60;100.00
36630;BME280;36256;42.154;23.002;2023-05-07T04:53:18;97462.97;;;12.59;99.67
36630;BME280;36256;42.154;23.002;2023-05-07T04:55:45;97469.88;;;12.68;98.77
36630;BME280;36256;42.154;23.002;2023-05-07T04:58:11;97468.16;;;12.70;97.79
36630;BME280;36256;42.154;23.002;2023-05-07T05:00:39;97461.44;;;12.68;99.23
36630;BME280;36256;42.154;23.002;2023-05-07T05:03:06;97470.03;;;12.64;99.79
36630;BME280;36256;42.154;23.002;2023-05-07T05:05:33;97456.50;;;12.41;99.70
36630;BME280;36256;42.154;23.002;2023-05-07T05:08:00;97462.97;;;12.59;100.00
36630;BME280;36256;42.154;23.002;2023-05-07T05:10:27;97461.13;;;12.66;99.06
36630;BME280;36256;42.154;23.002;2023-05-07T05:12:54;97468.91;;;12.61;100.00
36630;BME280;36256;42.154;23.002;2023-05-07T05:15:21;97467.69;;;12.63;99.74
36630;BME280;36256;42.154;23.002;2023-05-07T05:17:47;97469.44;;;12.69;99.40
36630;BME280;36256;42.154;23.002;2023-05-07T05:20:14;97462.91;;;12.81;100.00
36630;BME280;36256;42.154;23.002;2023-05-07T05:22:41;97470.50;;;12.72;99.10
36630;BME280;36256;42.154;23.002;2023-05-07T05:25:08;97467.84;;;12.68;99.95
36630;BME280;36256;42.154;23.002;2023-05-07T05:27:35;97461.19;;;12.84;96.51
36630;BME280;36256;42.154;23.002;2023-05-07T05:30:03;97469.09;;;13.07;97.09
36630;BME280;36256;42.154;23.002;2023-05-07T05:32:30;97469.75;;;13.29;95.50
36630;BME280;36256;42.154;23.002;2023-05-07T05:34:56;97465.97;;;13.41;94.53
36630;BME280;36256;42.154;23.002;2023-05-07T05:37:23;97465.38;;;13.64;91.85
36630;BME280;36256;42.154;23.002;2023-05-07T05:39:50;97472.25;;;13.99;90.81
36630;BME280;36256;42.154;23.002;2023-05-07T05:42:16;97464.06;;;14.29;85.40
36630;BME280;36256;42.154;23.002;2023-05-07T05:44:43;97477.34;;;14.79;83.14
36630;BME280;36256;42.154;23.002;2023-05-07T05:47:10;97466.81;;;15.59;80.07
36630;BME280;36256;42.154;23.002;2023-05-07T05:49:36;97465.66;;;16.19;75.13
36630;BME280;36256;42.154;23.002;2023-05-07T05:52:03;97450.31;;;16.69;70.29
36630;BME280;36256;42.154;23.002;2023-05-07T05:54:30;97446.53;;;17.47;67.18
36630;BME280;36256;42.154;23.002;2023-05-07T05:56:57;97436.97;;;17.65;65.01
36630;BME280;36256;42.154;23.002;2023-05-07T05:59:24;97449.22;;;18.22;63.94
36630;BME280;36256;42.154;23.002;2023-05-07T06:01:51;97441.16;;;18.72;63.41
36630;BME280;36256;42.154;23.002;2023-05-07T06:04:18;97447.06;;;19.42;60.75
36630;BME280;36256;42.154;23.002;2023-05-07T06:06:44;97437.16;;;19.96;57.76
36630;BME280;36256;42.154;23.002;2023-05-07T06:09:11;97431.53;;;20.18;55.00
36630;BME280;36256;42.154;23.002;2023-05-07T06:11:38;97430.22;;;20.19;54.56
36630;BME280;36256;42.154;23.002;2023-05-07T06:14:05;97429.50;;;20.47;53.92
36630;BME280;36256;42.154;23.002;2023-05-07T06:16:31;97421.19;;;20.87;54.38
36630;BME280;36256;42.154;23.002;2023-05-07T06:18:58;97419.34;;;21.23;52.79
36630;BME280;36256;42.154;23.002;2023-05-07T06:21:25;97421.28;;;21.61;51.33
36630;BME280;36256;42.154;23.002;2023-05-07T06:23:51;97422.06;;;22.19;50.60
36630;BME280;36256;42.154;23.002;2023-05-07T06:26:18;97408.78;;;22.57;48.09
36630;BME280;36256;42.154;23.002;2023-05-07T06:28:45;97406.13;;;22.70;47.33
36630;BME280;36256;42.154;23.002;2023-05-07T06:31:16;97399.91;;;22.66;49.03
36630;BME280;36256;42.154;23.002;2023-05-07T06:33:44;97407.50;;;22.88;48.39
36630;BME280;36256;42.154;23.002;2023-05-07T06:36:11;97388.63;;;23.03;46.90
36630;BME280;36256;42.154;23.002;2023-05-07T06:38:38;97394.56;;;23.29;46.77
36630;BME280;36256;42.154;23.002;2023-05-07T06:41:06;97400.22;;;23.40;47.25
36630;BME280;36256;42.154;23.002;2023-05-07T06:43:33;97399.03;;;23.55;47.24
36630;BME280;36256;42.154;23.002;2023-05-07T06:46:00;97386.75;;;23.35;47.25
36630;BME280;36256;42.154;23.002;2023-05-07T06:48:26;97428.56;;;23.44;47.23
36630;BME280;36256;42.154;23.002;2023-05-07T06:50:53;97425.47;;;23.42;46.13
36630;BME280;36256;42.154;23.002;2023-05-07T06:53:22;97420.59;;;23.07;48.18
36630;BME280;36256;42.154;23.002;2023-05-07T06:55:48;97415.53;;;23.43;46.25
36630;BME280;36256;42.154;23.002;2023-05-07T06:58:15;97417.97;;;23.09;45.84
36630;BME280;36256;42.154;23.002;2023-05-07T07:00:41;97411.34;;;23.20;46.27
36630;BME280;36256;42.154;23.002;2023-05-07T07:03:08;97415.72;;;23.26;46.54
36630;BME280;36256;42.154;23.002;2023-05-07T07:05:35;97408.09;;;23.34;46.08
36630;BME280;36256;42.154;23.002;2023-05-07T07:08:01;97414.16;;;23.50;47.35
36630;BME280;36256;42.154;23.002;2023-05-07T07:10:28;97405.75;;;22.79;46.77
36630;BME280;36256;42.154;23.002;2023-05-07T07:12:55;97400.88;;;22.74;47.71
36630;BME280;36256;42.154;23.002;2023-05-07T07:15:21;97405.63;;;22.66;48.58
36630;BME280;36256;42.154;23.002;2023-05-07T07:17:48;97413.06;;;23.04;50.10
36630;BME280;36256;42.154;23.002;2023-05-07T07:20:15;97418.03;;;23.04;47.84
36630;BME280;36256;42.154;23.002;2023-05-07T07:22:42;97401.97;;;23.19;48.88
36630;BME280;36256;42.154;23.002;2023-05-07T07:25:09;97404.84;;;22.95;50.13
36630;BME280;36256;42.154;23.002;2023-05-07T07:27:37;97400.41;;;22.70;48.14
36630;BME280;36256;42.154;23.002;2023-05-07T07:30:04;97403.25;;;22.70;48.34
36630;BME280;36256;42.154;23.002;2023-05-07T07:32:31;97404.91;;;23.14;48.90
36630;BME280;36256;42.154;23.002;2023-05-07T07:34:59;97401.31;;;23.37;47.85
36630;BME280;36256;42.154;23.002;2023-05-07T07:37:26;97410.09;;;23.64;47.70
36630;BME280;36256;42.154;23.002;2023-05-07T07:39:53;97413.75;;;23.40;46.80
36630;BME280;36256;42.154;23.002;2023-05-07T07:42:20;97404.63;;;23.42;48.59
36630;BME280;36256;42.154;23.002;2023-05-07T07:44:46;97399.06;;;23.25;46.50
36630;BME280;36256;42.154;23.002;2023-05-07T07:47:13;97404.75;;;23.55;45.91
36630;BME280;36256;42.154;23.002;2023-05-07T07:49:40;97410.72;;;23.32;45.65
36630;BME280;36256;42.154;23.002;2023-05-07T07:52:06;97407.84;;;23.32;46.88
36630;BME280;36256;42.154;23.002;2023-05-07T07:54:33;97408.38;;;23.55;44.05
36630;BME280;36256;42.154;23.002;2023-05-07T07:57:00;97403.50;;;23.50;45.73
36630;BME280;36256;42.154;23.002;2023-05-07T07:59:27;97398.19;;;23.35;45.44
36630;BME280;36256;42.154;23.002;2023-05-07T08:01:54;97388.50;;;23.63;45.77
36630;BME280;36256;42.154;23.002;2023-05-07T08:04:23;97396.19;;;23.92;46.04
36630;BME280;36256;42.154;23.002;2023-05-07T08:06:50;97393.53;;;23.94;44.22
36630;BME280;36256;42.154;23.002;2023-05-07T08:09:16;97379.69;;;23.98;44.91
36630;BME280;36256;42.154;23.002;2023-05-07T08:11:43;97374.09;;;23.87;46.89
36630;BME280;36256;42.154;23.002;2023-05-07T08:14:10;97378.44;;;23.93;43.72
36630;BME280;36256;42.154;23.002;2023-05-07T08:16:37;97366.97;;;23.75;42.21
36630;BME280;36256;42.154;23.002;2023-05-07T08:19:04;97365.69;;;23.33;42.95
36630;BME280;36256;42.154;23.002;2023-05-07T08:21:30;97361.69;;;23.42;44.15
36630;BME280;36256;42.154;23.002;2023-05-07T08:24:00;97360.47;;;23.07;43.78
36630;BME280;36256;42.154;23.002;2023-05-07T08:26:27;97361.78;;;23.30;44.57
36630;BME280;36256;42.154;23.002;2023-05-07T08:28:53;97366.31;;;23.45;45.63
36630;BME280;36256;42.154;23.002;2023-05-07T08:31:20;97364.06;;;23.37;42.37
36630;BME280;36256;42.154;23.002;2023-05-07T08:33:47;97365.38;;;23.36;42.71
36630;BME280;36256;42.154;23.002;2023-05-07T08:36:13;97357.38;;;23.05;44.34
36630;BME280;36256;42.154;23.002;2023-05-07T08:38:40;97362.75;;;23.14;43.72
36630;BME280;36256;42.154;23.002;2023-05-07T08:41:12;97358.13;;;23.30;44.02
36630;BME280;36256;42.154;23.002;2023-05-07T08:43:40;97358.91;;;23.55;44.54
36630;BME280;36256;42.154;23.002;2023-05-07T08:46:09;97352.19;;;23.71;45.64
36630;BME280;36256;42.154;23.002;2023-05-07T08:48:36;97349.19;;;23.63;44.29
36630;BME280;36256;42.154;23.002;2023-05-07T08:51:03;97338.13;;;23.49;46.29
36630;BME280;36256;42.154;23.002;2023-05-07T08:53:30;97353.78;;;23.48;44.89
36630;BME280;36256;42.154;23.002;2023-05-07T08:55:57;97342.94;;;23.40;44.22
36630;BME280;36256;42.154;23.002;2023-05-07T08:58:25;97338.06;;;23.11;44.26
36630;BME280;36256;42.154;23.002;2023-05-07T09:00:52;97344.13;;;23.26;46.86
36630;BME280;36256;42.154;23.002;2023-05-07T09:03:19;97345.19;;;23.23;43.85
36630;BME280;36256;42.154;23.002;2023-05-07T09:05:46;97340.47;;;23.26;46.19
36630;BME280;36256;42.154;23.002;2023-05-07T09:08:15;97335.03;;;23.47;48.82
36630;BME280;36256;42.154;23.002;2023-05-07T09:10:42;97337.31;;;23.54;48.14
36630;BME280;36256;42.154;23.002;2023-05-07T09:13:11;97326.91;;;23.51;45.67
36630;BME280;36256;42.154;23.002;2023-05-07T09:15:39;97325.47;;;23.63;45.11
36630;BME280;36256;42.154;23.002;2023-05-07T09:18:06;97323.91;;;23.62;43.18
36630;BME280;36256;42.154;23.002;2023-05-07T09:20:33;97318.13;;;23.86;47.47
36630;BME280;36256;42.154;23.002;2023-05-07T09:22:59;97318.81;;;24.10;46.84
36630;BME280;36256;42.154;23.002;2023-05-07T09:25:31;97305.47;;;24.13;43.25
36630;BME280;36256;42.154;23.002;2023-05-07T09:27:59;97304.06;;;24.01;41.36
36630;BME280;36256;42.154;23.002;2023-05-07T09:30:30;97302.50;;;24.18;46.31
36630;BME280;36256;42.154;23.002;2023-05-07T09:32:58;97294.47;;;24.17;41.94
36630;BME280;36256;42.154;23.002;2023-05-07T09:35:26;97281.78;;;23.94;45.96
36630;BME280;36256;42.154;23.002;2023-05-07T09:37:57;97296.00;;;23.99;43.25
36630;BME280;36256;42.154;23.002;2023-05-07T09:40:29;97289.53;;;23.99;42.14
36630;BME280;36256;42.154;23.002;2023-05-07T09:42:56;97275.75;;;23.79;45.18
36630;BME280;36256;42.154;23.002;2023-05-07T09:45:35;97284.72;;;24.07;42.80
36630;BME280;36256;42.154;23.002;2023-05-07T09:48:05;97277.44;;;24.06;41.82
36630;BME280;36256;42.154;23.002;2023-05-07T09:50:48;97276.59;;;24.11;42.71
36630;BME280;36256;42.154;23.002;2023-05-07T09:53:17;97278.50;;;24.22;47.52
36630;BME280;36256;42.154;23.002;2023-05-07T09:55:45;97274.09;;;24.34;45.56
36630;BME280;36256;42.154;23.002;2023-05-07T09:58:12;97269.66;;;24.64;46.93
36630;BME280;36256;42.154;23.002;2023-05-07T10:00:40;97257.97;;;24.75;45.21
36630;BME280;36256;42.154;23.002;2023-05-07T10:03:09;97259.97;;;24.80;47.17
36630;BME280;36256;42.154;23.002;2023-05-07T10:05:36;97265.28;;;24.89;46.51
36630;BME280;36256;42.154;23.002;2023-05-07T10:08:03;97258.44;;;25.06;43.68
36630;BME280;36256;42.154;23.002;2023-05-07T10:10:32;97249.44;;;24.70;42.21
36630;BME280;36256;42.154;23.002;2023-05-07T10:13:01;97245.50;;;24.86;45.53
36630;BME280;36256;42.154;23.002;2023-05-07T10:15:29;97243.38;;;24.73;45.91
36630;BME280;36256;42.154;23.002;2023-05-07T10:17:55;97247.38;;;24.97;49.41
36630;BME280;36256;42.154;23.002;2023-05-07T10:20:23;97245.94;;;25.16;43.97
36630;BME280;36256;42.154;23.002;2023-05-07T10:22:51;97238.66;;;25.15;44.98
36630;BME280;36256;42.154;23.002;2023-05-07T10:25:23;97233.72;;;25.03;39.49
36630;BME280;36256;42.154;23.002;2023-05-07T10:27:53;97226.06;;;25.18;46.62
36630;BME280;36256;42.154;23.002;2023-05-07T10:30:34;97234.09;;;25.46;44.71
36630;BME280;36256;42.154;23.002;2023-05-07T10:33:05;97222.50;;;25.38;42.19
36630;BME280;36256;42.154;23.002;2023-05-07T10:35:41;97221.94;;;25.53;45.28
36630;BME280;36256;42.154;23.002;2023-05-07T10:38:09;97210.88;;;25.57;40.96
36630;BME280;36256;42.154;23.002;2023-05-07T10:40:36;97221.13;;;25.86;40.67
36630;BME280;36256;42.154;23.002;2023-05-07T10:43:04;97214.91;;;25.95;41.85
36630;BME280;36256;42.154;23.002;2023-05-07T10:45:36;97212.44;;;25.99;38.53
36630;BME280;36256;42.154;23.002;2023-05-07T10:50:46;97207.38;;;25.92;40.34
36630;BME280;36256;42.154;23.002;2023-05-07T10:56:23;97193.38;;;25.68;37.98
36630;BME280;36256;42.154;23.002;2023-05-07T10:58:35;97200.28;;;25.73;42.64
36630;BME280;36256;42.154;23.002;2023-05-07T11:01:04;97203.09;;;25.86;40.14
36630;BME280;36256;42.154;23.002;2023-05-07T11:03:30;97205.00;;;25.83;40.91
36630;BME280;36256;42.154;23.002;2023-05-07T11:06:11;97199.53;;;25.72;41.46
36630;BME280;36256;42.154;23.002;2023-05-07T11:08:58;97192.22;;;25.37;39.80
36630;BME280;36256;42.154;23.002;2023-05-07T11:11:50;97194.44;;;25.44;44.51
36630;BME280;36256;42.154;23.002;2023-05-07T11:17:08;97202.69;;;25.82;39.88
36630;BME280;36256;42.154;23.002;2023-05-07T11:19:51;97194.63;;;25.80;42.86
36630;BME280;36256;42.154;23.002;2023-05-07T11:22:44;97190.19;;;25.58;42.17
36630;BME280;36256;42.154;23.002;2023-05-07T11:25:17;97184.84;;;25.42;40.50
36630;BME280;36256;42.154;23.002;2023-05-07T11:27:44;97188.34;;;25.35;40.76
36630;BME280;36256;42.154;23.002;2023-05-07T11:30:17;97189.34;;;25.50;41.14
36630;BME280;36256;42.154;23.002;2023-05-07T11:32:47;97187.69;;;25.76;42.73
36630;BME280;36256;42.154;23.002;2023-05-07T11:35:15;97187.69;;;25.76;39.90
36630;BME280;36256;42.154;23.002;2023-05-07T11:37:42;97178.78;;;25.66;41.34
36630;BME280;36256;42.154;23.002;2023-05-07T11:40:11;97170.53;;;25.49;40.74
36630;BME280;36256;42.154;23.002;2023-05-07T11:42:40;97172.66;;;25.36;40.08
36630;BME280;36256;42.154;23.002;2023-05-07T11:45:09;97173.69;;;25.25;42.40
36630;BME280;36256;42.154;23.002;2023-05-07T11:47:36;97171.00;;;25.40;44.25
36630;BME280;36256;42.154;23.002;2023-05-07T11:50:07;97165.34;;;25.48;45.29
36630;BME280;36256;42.154;23.002;2023-05-07T11:52:35;97161.81;;;25.55;40.76
36630;BME280;36256;42.154;23.002;2023-05-07T11:55:02;97166.84;;;25.62;42.01
36630;BME280;36256;42.154;23.002;2023-05-07T11:57:33;97168.59;;;25.65;45.04
36630;BME280;36256;42.154;23.002;2023-05-07T11:59:59;97168.13;;;25.74;39.57
36630;BME280;36256;42.154;23.002;2023-05-07T12:02:28;97164.97;;;25.85;43.47
36630;BME280;36256;42.154;23.002;2023-05-07T12:04:55;97156.47;;;25.59;35.49
36630;BME280;36256;42.154;23.002;2023-05-07T12:07:23;97146.94;;;25.64;35.86
36630;BME280;36256;42.154;23.002;2023-05-07T12:09:50;97146.31;;;25.58;39.80
36630;BME280;36256;42.154;23.002;2023-05-07T12:12:17;97145.09;;;25.53;41.41
36630;BME280;36256;42.154;23.002;2023-05-07T12:14:44;97150.38;;;25.62;38.41
36630;BME280;36256;42.154;23.002;2023-05-07T12:17:13;97144.31;;;25.66;39.84
36630;BME280;36256;42.154;23.002;2023-05-07T12:19:42;97138.88;;;25.62;38.10
36630;BME280;36256;42.154;23.002;2023-05-07T12:22:10;97130.81;;;25.61;38.60
36630;BME280;36256;42.154;23.002;2023-05-07T12:24:48;97116.94;;;25.52;35.05
36630;BME280;36256;42.154;23.002;2023-05-07T12:27:16;97120.75;;;25.47;38.37
36630;BME280;36256;42.154;23.002;2023-05-07T12:29:46;97132.34;;;25.41;37.26
36630;BME280;36256;42.154;23.002;2023-05-07T12:32:15;97124.16;;;25.45;39.24
36630;BME280;36256;42.154;23.002;2023-05-07T12:34:43;97113.28;;;25.51;35.83
36630;BME280;36256;42.154;23.002;2023-05-07T12:37:12;97113.16;;;25.57;35.66
36630;BME280;36256;42.154;23.002;2023-05-07T12:39:47;97113.59;;;25.61;36.12
36630;BME280;36256;42.154;23.002;2023-05-07T12:42:16;97103.28;;;25.65;35.30
36630;BME280;36256;42.154;23.002;2023-05-07T12:44:45;97104.19;;;25.60;35.40
36630;BME280;36256;42.154;23.002;2023-05-07T12:47:12;97092.91;;;25.62;38.50
36630;BME280;36256;42.154;23.002;2023-05-07T12:49:40;97104.91;;;25.74;38.41
36630;BME280;36256;42.154;23.002;2023-05-07T12:52:07;97094.78;;;25.60;37.67
36630;BME280;36256;42.154;23.002;2023-05-07T12:54:37;97093.53;;;25.68;38.91
36630;BME280;36256;42.154;23.002;2023-05-07T12:57:08;97089.19;;;25.54;36.25
36630;BME280;36256;42.154;23.002;2023-05-07T12:59:41;97091.91;;;25.60;38.03